createdAt,value
2023-02-28T00:09:18.283Z,13.20
2023-02-28T00:52:48.447Z,12.90
2023-02-28T01:36:20.104Z,14.80
2023-02-28T01:58:08.056Z,14.10
2023-02-28T02:20:32.732Z,15.00
2023-02-28T02:42:23.601Z,14.40
2023-02-28T03:04:13.922Z,14.50
2023-02-28T03:26:06.451Z,15.70
2023-02-28T03:47:55.984Z,14.30
2023-02-28T04:09:42.048Z,15.40
2023-02-28T04:52:11.539Z,14.70
2023-02-28T05:13:57.335Z,14.40
2023-02-28T05:57:27.844Z,14.00
2023-02-28T06:19:14.661Z,14.70
2023-02-28T06:41:01.949Z,15.60
2023-02-28T07:02:48.164Z,13.00
2023-02-28T07:24:34.544Z,13.10
2023-02-28T07:52:01.643Z,11.40
2023-02-28T08:35:32.266Z,7.70
2023-02-28T08:57:18.023Z,6.80
2023-02-28T09:19:04.122Z,4.70
2023-02-28T09:40:53.124Z,4.50
2023-02-28T10:02:54.302Z,3.90
2023-02-28T10:24:44.412Z,4.90
2023-02-28T10:46:32.746Z,5.60
2023-02-28T11:08:20.489Z,6.50
2023-02-28T11:30:24.901Z,7.70
2023-02-28T11:52:26.474Z,8.10
2023-02-28T12:14:34.066Z,8.70
2023-02-28T12:36:23.152Z,8.30
2023-02-28T12:58:18.476Z,8.50
2023-02-28T13:20:04.579Z,10.40
2023-02-28T13:41:51.538Z,9.70
2023-02-28T14:03:58.969Z,9.50
2023-02-28T14:33:44.751Z,10.20
2023-02-28T14:55:33.474Z,10.70
2023-02-28T15:17:26.898Z,11.30
2023-02-28T15:39:24.975Z,10.20
2023-02-28T16:01:23.256Z,10.70
2023-02-28T16:23:09.335Z,9.60
2023-02-28T16:44:56.456Z,10.50
2023-02-28T17:06:42.189Z,13.50
2023-02-28T17:28:28.240Z,16.40
2023-02-28T18:12:01.868Z,23.00
2023-02-28T18:33:49.603Z,24.20
2023-02-28T18:55:35.873Z,25.00
2023-02-28T19:17:21.807Z,27.20
2023-02-28T19:39:08.082Z,26.20
2023-02-28T20:00:53.929Z,28.80
2023-02-28T20:22:39.916Z,29.70
2023-02-28T20:44:26.117Z,30.40
2023-02-28T21:06:12.643Z,29.80
2023-02-28T21:27:58.881Z,34.10
2023-02-28T21:49:44.592Z,34.70
2023-02-28T22:11:30.952Z,32.50
2023-02-28T22:33:16.686Z,33.20
2023-02-28T22:55:02.343Z,35.50
2023-02-28T23:16:50.066Z,36.80
2023-02-28T23:38:35.905Z,37.30
